Flinterbrise — PHCA — position and weather

sailwx.info

Track history (hours):
 
Tides and Currents Weather Stations Pressure Air Temp Water Temp Dewpoint Dewpoint Depression Visibility Wind Speed Wind Dir Waves Ship Positions

Flinterbrise

Last reported at 2014-Sep-17 17:32 UTC. Time now 2014-Sep-17 17:40 UTC.
Position N 54°09' E 012°07'.

Length 81 m; draft 5.5 m.

Type: Ship. MMSI: 246044000.

Date/timePositionNaut miles runAvg speedWind from/ knotsBaromVisibWave heightAir tempDewpointWater temp
2014-Sep-17 17:32N 54°09' E 012°07'0 0.0
2014-Sep-17 16:04N 54°09' E 012°07'0 0.0
2014-Sep-17 14:09N 54°09' E 012°07'0 0.0
2014-Sep-17 13:24N 54°09' E 012°07'0 0.0
2014-Sep-17 12:29N 54°09' E 012°07'0 0.0
2014-Sep-17 11:32N 54°09' E 012°07'0 0.0
2014-Sep-17 10:29N 54°09' E 012°07'0 0.0
2014-Sep-17 09:07N 54°09' E 012°07'0 0.0
2014-Sep-17 08:33N 54°09' E 012°07'0 0.0
2014-Sep-17 07:09N 54°09' E 012°07'0 0.0
2014-Sep-17 06:27N 54°09' E 012°07'0 0.0
2014-Sep-17 05:11N 54°09' E 012°07'0 0.0
2014-Sep-17 04:29N 54°09' E 012°07'0 0.0
2014-Sep-17 03:26N 54°09' E 012°07'0 0.0
2014-Sep-17 02:25N 54°09' E 012°07'0 0.0
2014-Sep-17 01:32N 54°09' E 012°07'2 2.0
2014-Sep-17 00:33N 54°11' E 012°06'5 4.6
2014-Sep-16 23:29N 54°14' E 011°60'0 0.0
2014-Sep-16 22:32N 54°14' E 011°60'0 0.1
2014-Sep-16 21:33N 54°14' E 011°60'9 8.9
2014-Sep-16 20:33N 54°20' E 011°48'1110.5
2014-Sep-16 19:33N 54°26' E 011°33'1110.8
2014-Sep-16 18:33N 54°32' E 011°18'1110.5
2014-Sep-16 17:33N 54°35' E 011°00'3711.3
2014-Sep-16 14:19N 54°56' E 010°08'911.7
2014-Sep-16 13:33N 55°03' E 009°59'  
2014-Sep-13 11:33N 55°08' E 009°49'9 9.2
2014-Sep-13 10:32N 55°01' E 009°59'10 9.4
2014-Sep-13 09:30N 54°52' E 010°08'54 6.0
2014-Sep-13 00:33N 54°07' E 009°20'8 8.2
2014-Sep-12 23:33N 53°59' E 009°16'7 6.6
2014-Sep-12 22:33N 53°54' E 009°09'1 0.7
2014-Sep-12 21:33N 53°53' E 009°09'1010.3
2014-Sep-12 20:33N 53°47' E 009°23'1212.4
2014-Sep-12 19:33N 53°36' E 009°35'1211.6
2014-Sep-12 18:34N 53°33' E 009°53'5 4.9
2014-Sep-12 17:33N 53°29' E 009°58'0 0.3
2014-Sep-12 16:18N 53°28' E 009°58'0 0.0
2014-Sep-12 15:30N 53°28' E 009°58'0 0.0
2014-Sep-12 14:32N 53°28' E 009°58'0 0.0
2014-Sep-12 13:05N 53°28' E 009°58'0 0.0
2014-Sep-12 12:25N 53°28' E 009°58'0 0.0
2014-Sep-12 10:19N 53°28' E 009°58'0 0.0
2014-Sep-12 09:24N 53°28' E 009°58'0 0.0
2014-Sep-12 07:14N 53°28' E 009°58'0 0.0
2014-Sep-12 06:32N 53°28' E 009°58'0 0.0
2014-Sep-12 05:28N 53°28' E 009°58'0 0.0
2014-Sep-12 04:22N 53°28' E 009°58'0 0.0
2014-Sep-12 03:31N 53°28' E 009°58'0 0.0
2014-Sep-12 02:24N 53°28' E 009°58'0 0.0
2014-Sep-12 01:33N 53°28' E 009°58'0 0.0
2014-Sep-12 00:20N 53°28' E 009°58'0 0.0
2014-Sep-11 23:08N 53°28' E 009°58'0 0.0
2014-Sep-11 21:25N 53°28' E 009°58'0 0.0
2014-Sep-11 20:32N 53°28' E 009°58'0 0.0
2014-Sep-11 19:32N 53°28' E 009°58'0 0.0
2014-Sep-11 18:33N 53°28' E 009°59'4 3.9
2014-Sep-11 17:33N 53°32' E 009°56'10 9.8
2014-Sep-11 16:33N 53°34' E 009°40'1312.9
2014-Sep-11 15:33N 53°44' E 009°26'1312.8
2014-Sep-11 14:33N 53°53' E 009°11'1312.8
2014-Sep-11 13:33N 53°50' E 008°49'1212.5
2014-Sep-11 12:34N 53°58' E 008°33'1212.4
2014-Sep-11 11:34N 53°59' E 008°12'7911.2
2014-Sep-11 04:31N 53°41' E 006°01'9 8.9
2014-Sep-11 03:33N 53°39' E 005°47'9 8.8
2014-Sep-11 02:34N 53°36' E 005°33'9 8.6
2014-Sep-11 01:33N 53°32' E 005°20'9 8.6
2014-Sep-11 00:33N 53°29' E 005°06'9 8.9
2014-Sep-10 23:34N 53°26' E 004°53'9 8.6
2014-Sep-10 22:31N 53°20' E 004°41'22 9.0
2014-Sep-10 20:04N 53°01' E 004°24'6 9.8
2014-Sep-10 19:26N 52°56' E 004°18'910.1
2014-Sep-10 18:33N 52°48' E 004°10'1110.7
2014-Sep-10 17:34N 52°39' E 004°02'1110.9
2014-Sep-10 16:33N 52°29' E 003°55'1111.0
2014-Sep-10 15:32N 52°18' E 003°52'1110.9
2014-Sep-10 14:33N 52°07' E 003°56'1010.3
2014-Sep-10 13:33N 51°59' E 004°05'1111.2
2014-Sep-10 12:33N 51°54' E 004°22'2 1.0
2014-Sep-10 10:24N 51°55' E 004°25'0 0.0
2014-Sep-10 08:23N 51°55' E 004°25'0 0.0
2014-Sep-10 07:29N 51°55' E 004°25'0 0.0
2014-Sep-10 06:32N 51°55' E 004°25'0 0.0
2014-Sep-10 05:22N 51°55' E 004°25'0 0.0
2014-Sep-10 04:25N 51°55' E 004°25'0 0.0
2014-Sep-10 03:22N 51°55' E 004°25'0 0.6
2014-Sep-10 02:33N 51°54' E 004°25'1010.4
2014-Sep-10 01:33N 51°58' E 004°09'1111.4
2014-Sep-10 00:33N 52°01' E 003°51'9 8.5
2014-Sep-09 23:31N 52°09' E 003°45'9 9.2
2014-Sep-09 22:31N 52°18' E 003°47'48 9.7
2014-Sep-09 17:33N 53°04' E 004°12'34 8.5
2014-Sep-09 13:33N 53°30' E 004°47'1010.1
2014-Sep-09 12:33N 53°34' E 005°03'10 9.9
2014-Sep-09 11:33N 53°37' E 005°19'9 9.3
2014-Sep-09 10:33N 53°40' E 005°34'8 8.5
2014-Sep-09 09:33N 53°43' E 005°47'65 8.1
2014-Sep-09 01:33N 54°00' E 007°33'9 8.8
2014-Sep-09 00:33N 54°02' E 007°47'9 8.5
2014-Sep-08 23:33N 54°01' E 008°02'9 8.2
2014-Sep-08 22:31N 54°01' E 008°16'8 8.7
2014-Sep-08 21:33N 53°59' E 008°30'8 7.5
2014-Sep-08 20:33N 53°55' E 008°41'9 8.6
2014-Sep-08 19:33N 53°51' E 008°54'100 6.2
2014-Sep-08 03:24N 54°31' E 011°31'8 9.1
2014-Sep-08 02:33N 54°28' E 011°43'9 9.4
2014-Sep-08 01:33N 54°26' E 011°59'9 8.8
2014-Sep-08 00:33N 54°31' E 012°12'9 9.4
2014-Sep-07 23:33N 54°39' E 012°20'10 9.6
2014-Sep-07 22:31N 54°44' E 012°35'9 9.3
2014-Sep-07 21:33N 54°48' E 012°49'9 9.2
2014-Sep-07 20:33N 54°52' E 013°04'9 9.3
2014-Sep-07 19:33N 54°55' E 013°19'9 9.3
2014-Sep-07 18:33N 54°58' E 013°34'10 9.6
2014-Sep-07 17:33N 55°02' E 013°50'  
Track history (hours):
 
Tides and Currents Weather Stations Pressure Air Temp Water Temp Dewpoint Dewpoint Depression Visibility Wind Speed Wind Dir Waves Ship Positions

Flinterbrise

Last reported at 2014-Sep-17 17:32 UTC. Time now 2014-Sep-17 17:40 UTC.
Position N 54°09' E 012°07'.

Length 81 m; draft 5.5 m.

Type: Ship. MMSI: 246044000.

Date/timePositionNaut miles runAvg speedWind from/ knotsBaromVisibWave heightAir tempDewpointWater temp
2014-Sep-17 17:32N 54°09' E 012°07'0 0.0
2014-Sep-17 16:04N 54°09' E 012°07'0 0.0
2014-Sep-17 14:09N 54°09' E 012°07'0 0.0
2014-Sep-17 13:24N 54°09' E 012°07'0 0.0
2014-Sep-17 12:29N 54°09' E 012°07'0 0.0
2014-Sep-17 11:32N 54°09' E 012°07'0 0.0
2014-Sep-17 10:29N 54°09' E 012°07'0 0.0
2014-Sep-17 09:07N 54°09' E 012°07'0 0.0
2014-Sep-17 08:33N 54°09' E 012°07'0 0.0
2014-Sep-17 07:09N 54°09' E 012°07'0 0.0
2014-Sep-17 06:27N 54°09' E 012°07'0 0.0
2014-Sep-17 05:11N 54°09' E 012°07'0 0.0
2014-Sep-17 04:29N 54°09' E 012°07'0 0.0
2014-Sep-17 03:26N 54°09' E 012°07'0 0.0
2014-Sep-17 02:25N 54°09' E 012°07'0 0.0
2014-Sep-17 01:32N 54°09' E 012°07'2 2.0
2014-Sep-17 00:33N 54°11' E 012°06'5 4.6
2014-Sep-16 23:29N 54°14' E 011°60'0 0.0
2014-Sep-16 22:32N 54°14' E 011°60'0 0.1
2014-Sep-16 21:33N 54°14' E 011°60'9 8.9
2014-Sep-16 20:33N 54°20' E 011°48'1110.5
2014-Sep-16 19:33N 54°26' E 011°33'1110.8
2014-Sep-16 18:33N 54°32' E 011°18'1110.5
2014-Sep-16 17:33N 54°35' E 011°00'3711.3
2014-Sep-16 14:19N 54°56' E 010°08'911.7
2014-Sep-16 13:33N 55°03' E 009°59'  
2014-Sep-13 11:33N 55°08' E 009°49'9 9.2
2014-Sep-13 10:32N 55°01' E 009°59'10 9.4
2014-Sep-13 09:30N 54°52' E 010°08'54 6.0
2014-Sep-13 00:33N 54°07' E 009°20'8 8.2
2014-Sep-12 23:33N 53°59' E 009°16'7 6.6
2014-Sep-12 22:33N 53°54' E 009°09'1 0.7
2014-Sep-12 21:33N 53°53' E 009°09'1010.3
2014-Sep-12 20:33N 53°47' E 009°23'1212.4
2014-Sep-12 19:33N 53°36' E 009°35'1211.6
2014-Sep-12 18:34N 53°33' E 009°53'5 4.9
2014-Sep-12 17:33N 53°29' E 009°58'0 0.3
2014-Sep-12 16:18N 53°28' E 009°58'0 0.0
2014-Sep-12 15:30N 53°28' E 009°58'0 0.0
2014-Sep-12 14:32N 53°28' E 009°58'0 0.0
2014-Sep-12 13:05N 53°28' E 009°58'0 0.0
2014-Sep-12 12:25N 53°28' E 009°58'0 0.0
2014-Sep-12 10:19N 53°28' E 009°58'0 0.0
2014-Sep-12 09:24N 53°28' E 009°58'0 0.0
2014-Sep-12 07:14N 53°28' E 009°58'0 0.0
2014-Sep-12 06:32N 53°28' E 009°58'0 0.0
2014-Sep-12 05:28N 53°28' E 009°58'0 0.0
2014-Sep-12 04:22N 53°28' E 009°58'0 0.0
2014-Sep-12 03:31N 53°28' E 009°58'0 0.0
2014-Sep-12 02:24N 53°28' E 009°58'0 0.0
2014-Sep-12 01:33N 53°28' E 009°58'0 0.0
2014-Sep-12 00:20N 53°28' E 009°58'0 0.0
2014-Sep-11 23:08N 53°28' E 009°58'0 0.0
2014-Sep-11 21:25N 53°28' E 009°58'0 0.0
2014-Sep-11 20:32N 53°28' E 009°58'0 0.0
2014-Sep-11 19:32N 53°28' E 009°58'0 0.0
2014-Sep-11 18:33N 53°28' E 009°59'4 3.9
2014-Sep-11 17:33N 53°32' E 009°56'10 9.8
2014-Sep-11 16:33N 53°34' E 009°40'1312.9
2014-Sep-11 15:33N 53°44' E 009°26'1312.8
2014-Sep-11 14:33N 53°53' E 009°11'1312.8
2014-Sep-11 13:33N 53°50' E 008°49'1212.5
2014-Sep-11 12:34N 53°58' E 008°33'1212.4
2014-Sep-11 11:34N 53°59' E 008°12'7911.2
2014-Sep-11 04:31N 53°41' E 006°01'9 8.9
2014-Sep-11 03:33N 53°39' E 005°47'9 8.8
2014-Sep-11 02:34N 53°36' E 005°33'9 8.6
2014-Sep-11 01:33N 53°32' E 005°20'9 8.6
2014-Sep-11 00:33N 53°29' E 005°06'9 8.9
2014-Sep-10 23:34N 53°26' E 004°53'9 8.6
2014-Sep-10 22:31N 53°20' E 004°41'22 9.0
2014-Sep-10 20:04N 53°01' E 004°24'6 9.8
2014-Sep-10 19:26N 52°56' E 004°18'910.1
2014-Sep-10 18:33N 52°48' E 004°10'1110.7
2014-Sep-10 17:34N 52°39' E 004°02'1110.9
2014-Sep-10 16:33N 52°29' E 003°55'1111.0
2014-Sep-10 15:32N 52°18' E 003°52'1110.9
2014-Sep-10 14:33N 52°07' E 003°56'1010.3
2014-Sep-10 13:33N 51°59' E 004°05'1111.2
2014-Sep-10 12:33N 51°54' E 004°22'2 1.0
2014-Sep-10 10:24N 51°55' E 004°25'0 0.0
2014-Sep-10 08:23N 51°55' E 004°25'0 0.0
2014-Sep-10 07:29N 51°55' E 004°25'0 0.0
2014-Sep-10 06:32N 51°55' E 004°25'0 0.0
2014-Sep-10 05:22N 51°55' E 004°25'0 0.0
2014-Sep-10 04:25N 51°55' E 004°25'0 0.0
2014-Sep-10 03:22N 51°55' E 004°25'0 0.6
2014-Sep-10 02:33N 51°54' E 004°25'1010.4
2014-Sep-10 01:33N 51°58' E 004°09'1111.4
2014-Sep-10 00:33N 52°01' E 003°51'9 8.5
2014-Sep-09 23:31N 52°09' E 003°45'9 9.2
2014-Sep-09 22:31N 52°18' E 003°47'48 9.7
2014-Sep-09 17:33N 53°04' E 004°12'34 8.5
2014-Sep-09 13:33N 53°30' E 004°47'1010.1
2014-Sep-09 12:33N 53°34' E 005°03'10 9.9
2014-Sep-09 11:33N 53°37' E 005°19'9 9.3
2014-Sep-09 10:33N 53°40' E 005°34'8 8.5
2014-Sep-09 09:33N 53°43' E 005°47'65 8.1
2014-Sep-09 01:33N 54°00' E 007°33'9 8.8
2014-Sep-09 00:33N 54°02' E 007°47'9 8.5
2014-Sep-08 23:33N 54°01' E 008°02'9 8.2
2014-Sep-08 22:31N 54°01' E 008°16'8 8.7
2014-Sep-08 21:33N 53°59' E 008°30'8 7.5
2014-Sep-08 20:33N 53°55' E 008°41'9 8.6
2014-Sep-08 19:33N 53°51' E 008°54'100 6.2
2014-Sep-08 03:24N 54°31' E 011°31'8 9.1
2014-Sep-08 02:33N 54°28' E 011°43'9 9.4
2014-Sep-08 01:33N 54°26' E 011°59'9 8.8
2014-Sep-08 00:33N 54°31' E 012°12'9 9.4
2014-Sep-07 23:33N 54°39' E 012°20'10 9.6
2014-Sep-07 22:31N 54°44' E 012°35'9 9.3
2014-Sep-07 21:33N 54°48' E 012°49'9 9.2
2014-Sep-07 20:33N 54°52' E 013°04'9 9.3
2014-Sep-07 19:33N 54°55' E 013°19'9 9.3
2014-Sep-07 18:33N 54°58' E 013°34'10 9.6
2014-Sep-07 17:33N 55°02' E 013°50'  

Dump ship's entire track history